Pagrindinis puslapis
METAR-TAF:

METAR-TAF

Oro uostai :

Rojetas, Tailandas

platuma: 16-07-00N, ilguma: 103-46-26E, Aukštis: 138 m

Dabartinis oras

Ataskaita buvo paskelbta 21 minutes, ne 07:00 UTC
Vėjas 6 kt iš Rytų/Šiaurės Rytų, svyruoja nuo Šiaurės ir Pietų/Pietryčių
Temperatūra 31°C
Drėgmė 33%
Slėgis 1016 hPa
Matomumas 10 km arba daugiau
nėra debesų žemiau 1500 m ir nėra kamuolinių lietaus debesų

METAR: VTUV 230700Z 07006KT 360V150 CAVOK 31/13 Q1016 NOSIG

Laikas: 14:21 (07:21 UTC)

Prognozė

Ataskaita buvo paskelbta 2 valandos ir 21 minutes, ne 05:00 UTC
Prognozė galioja nuo 23 metu 06 UTC su 24 metu 06 UTC
Vėjas 11 kt iš Rytų/Šiaurės Rytų
Matomumas 10 km arba daugiau
nėra debesų žemiau 1500 m ir nėra kamuolinių lietaus debesų

TAF: VTUV 230500Z 2306/2406 07011KT CAVOK

Orai ataskaitas ir orų prognozės (METAR, TAF).

turimą stotys yra geltonos ir raudonos taškus žemėlapyje.

Perkelti pele per norėdami pamatyti stoties vardą.

Tada spustelėkite, norėdami matyti oro stebėjimo ir prognozės.

Norėdami pakeisti žemėlapį: spustelėkite ant žalios mygtukų su juodo kryžiaus žemyn,; žalią mygtuką su brūkšneliu, jei norite nutolinti; arba žalių rodyklių gretimoms žemėlapius.


METAR-TAF: